Time;durP1;ratioP1;P1;durP2;ratioP2;P2;SDS_P1;SDS_P2;PMS_P1;PMS_P2;Temp;Humidity;BMP_temperature;BMP_pressure;BME280_temperature;BME280_humidity;BME280_pressure;Samples;Min_cycle;Max_cycle;Signal;HPM_P1;HPM_P2
2022/11/08 00:01:39;;;;;;;6.80;3.10;;;12.00;99.90;;;;;;7388777;19;20146;-74
2022/11/08 00:04:10;;;;;;;3.60;2.73;;;12.00;99.90;;;;;;7390538;19;20159;-75
2022/11/08 00:14:51;;;;;;;4.97;2.07;;;10.70;99.90;;;;;;7389217;19;20127;-73
2022/11/08 00:17:18;;;;;;;4.03;2.33;;;10.70;99.90;;;;;;7388714;19;20139;-74
2022/11/08 00:19:44;;;;;;;2.53;2.13;;;10.80;99.90;;;;;;7388764;19;20146;-73
2022/11/08 00:22:10;;;;;;;3.43;2.40;;;10.60;99.90;;;;;;7389503;19;20232;-74
2022/11/08 00:24:37;;;;;;;5.60;2.07;;;10.60;99.90;;;;;;7389660;19;20154;-75
2022/11/08 00:27:04;;;;;;;4.93;2.03;;;10.70;99.90;;;;;;7389153;19;20153;-74
2022/11/08 00:29:30;;;;;;;5.93;1.93;;;10.90;99.90;;;;;;7391875;19;20247;-74
2022/11/08 00:31:56;;;;;;;5.07;1.90;;;11.10;99.90;;;;;;7386963;19;20599;-74
2022/11/08 00:34:21;;;;;;;3.47;2.30;;;11.10;99.90;;;;;;7389306;19;20611;-75
2022/11/08 00:36:47;;;;;;;4.00;2.03;;;11.20;99.90;;;;;;7386248;19;20622;-75
2022/11/08 00:39:13;;;;;;;4.87;2.00;;;11.00;99.90;;;;;;7386613;19;20143;-72
2022/11/08 00:41:39;;;;;;;2.47;1.80;;;11.10;99.90;;;;;;7386311;19;20156;-73
2022/11/08 00:44:04;;;;;;;3.57;1.93;;;10.90;99.90;;;;;;7388225;19;20659;-75
2022/11/08 00:46:30;;;;;;;4.17;2.27;;;10.80;99.90;;;;;;7385956;19;20152;-74
2022/11/08 00:48:56;;;;;;;5.50;2.07;;;10.70;99.90;;;;;;7385922;19;20145;-75
2022/11/08 00:51:21;;;;;;;3.93;2.10;;;10.90;99.90;;;;;;7387468;19;20176;-75
2022/11/08 00:53:47;;;;;;;3.53;2.13;;;11.00;99.90;;;;;;7387599;19;20173;-74
2022/11/08 00:56:13;;;;;;;5.07;2.23;;;10.70;99.90;;;;;;7387474;19;20161;-74
2022/11/08 00:58:40;;;;;;;4.33;1.90;;;10.50;99.90;;;;;;7386659;19;20142;-74
2022/11/08 01:01:11;;;;;;;4.07;2.30;;;10.90;99.90;;;;;;7383118;19;20198;-75
2022/11/08 01:03:37;;;;;;;4.17;2.63;;;11.20;99.90;;;;;;7388958;19;20130;-75
2022/11/08 01:06:08;;;;;;;4.83;2.50;;;11.00;99.90;;;;;;7388245;19;20174;-74
2022/11/08 01:08:33;;;;;;;4.77;2.80;;;10.70;99.90;;;;;;7384974;19;20556;-74
2022/11/08 01:11:05;;;;;;;4.20;2.43;;;10.90;99.90;;;;;;7386518;19;20273;-74
2022/11/08 01:13:30;;;;;;;4.73;3.10;;;10.70;99.90;;;;;;7385723;19;20134;-74
2022/11/08 01:15:56;;;;;;;3.70;2.83;;;10.40;99.90;;;;;;7386325;19;20134;-74
2022/11/08 01:18:22;;;;;;;3.43;2.27;;;10.50;99.90;;;;;;7383358;19;20167;-74
2022/11/08 01:20:48;;;;;;;3.17;2.30;;;10.80;99.90;;;;;;7395202;19;20146;-74
2022/11/08 01:23:16;;;;;;;5.00;2.83;;;10.90;99.90;;;;;;7392763;19;20546;-74
2022/11/08 01:25:43;;;;;;;4.90;2.60;;;10.80;99.90;;;;;;7394578;19;20171;-73
2022/11/08 01:28:10;;;;;;;3.83;2.60;;;11.00;99.90;;;;;;7393505;19;20170;-74
2022/11/08 01:30:38;;;;;;;4.27;2.83;;;11.10;99.90;;;;;;7395582;19;20596;-74
2022/11/08 01:33:05;;;;;;;2.83;2.27;;;11.20;99.90;;;;;;7393891;19;20615;-74
2022/11/08 01:35:32;;;;;;;3.50;2.30;;;11.00;99.90;;;;;;7393986;19;20173;-76
2022/11/08 01:37:58;;;;;;;3.53;2.23;;;11.10;99.90;;;;;;7392965;19;20138;-73
2022/11/08 01:40:25;;;;;;;3.87;2.60;;;11.10;99.90;;;;;;7395388;19;20174;-76
2022/11/08 01:42:52;;;;;;;3.80;2.60;;;11.20;99.90;;;;;;7402670;19;20660;-73
2022/11/08 01:45:55;;;;;;;2.83;2.40;;;11.10;99.90;;;;;;7411663;19;20143;-74
2022/11/08 01:48:22;;;;;;;5.97;2.53;;;11.00;99.90;;;;;;7410425;19;20139;-74
2022/11/08 01:50:49;;;;;;;4.63;2.73;;;11.00;99.90;;;;;;7401359;19;20467;-75
2022/11/08 01:53:15;;;;;;;4.80;2.70;;;11.00;99.90;;;;;;7403756;19;20203;-75
2022/11/08 01:55:41;;;;;;;4.87;3.37;;;10.80;99.90;;;;;;7400802;19;20151;-74
2022/11/08 01:58:11;;;;;;;4.37;2.80;;;11.00;99.90;;;;;;7391508;19;20161;-72
2022/11/08 02:00:38;;;;;;;4.60;2.80;;;10.80;99.90;;;;;;7395015;19;20271;-74
2022/11/08 02:03:06;;;;;;;4.50;2.73;;;10.80;99.90;;;;;;7392140;19;20150;-74
2022/11/08 02:05:33;;;;;;;4.50;2.93;;;11.00;99.90;;;;;;7391663;19;20589;-74
2022/11/08 02:08:05;;;;;;;5.63;2.90;;;10.60;99.90;;;;;;7391585;19;20170;-75
2022/11/08 02:10:36;;;;;;;4.63;2.80;;;10.60;99.90;;;;;;7390941;19;20156;-74
2022/11/08 02:13:06;;;;;;;5.50;2.73;;;10.60;99.90;;;;;;7392990;19;20142;-73
2022/11/08 02:15:32;;;;;;;3.93;2.83;;;10.60;99.90;;;;;;7391804;19;20138;-74
2022/11/08 02:17:57;;;;;;;4.73;2.93;;;10.50;99.90;;;;;;7390161;19;20174;-75
2022/11/08 02:20:23;;;;;;;5.27;2.90;;;10.50;99.90;;;;;;7392795;19;20726;-74
2022/11/08 02:23:07;;;;;;;3.50;2.93;;;10.30;99.90;;;;;;7389420;19;20177;-73
2022/11/08 02:25:33;;;;;;;4.30;3.00;;;10.60;99.90;;;;;;7390584;19;20158;-73
2022/11/08 02:27:59;;;;;;;6.27;2.90;;;10.80;99.90;;;;;;7391380;19;20618;-75
2022/11/08 02:30:31;;;;;;;4.63;2.90;;;10.90;99.90;;;;;;7393156;19;20475;-74
2022/11/08 02:32:57;;;;;;;3.83;2.47;;;10.90;99.90;;;;;;7392318;19;20166;-73
2022/11/08 02:35:25;;;;;;;3.87;2.93;;;10.90;99.90;;;;;;7390914;19;20142;-74
2022/11/08 02:37:51;;;;;;;2.87;2.40;;;10.80;99.90;;;;;;7390104;19;20150;-74
2022/11/08 02:40:16;;;;;;;5.13;2.93;;;10.80;99.90;;;;;;7387431;19;20126;-74
2022/11/08 02:42:42;;;;;;;4.93;2.97;;;10.40;99.90;;;;;;7392773;19;20167;-74
2022/11/08 02:45:09;;;;;;;3.30;2.57;;;10.40;99.90;;;;;;7390895;19;20639;-73
2022/11/08 02:47:34;;;;;;;3.23;2.30;;;10.40;99.90;;;;;;7393858;19;20138;-73
2022/11/08 02:50:00;;;;;;;3.93;2.77;;;10.40;99.90;;;;;;7389969;19;20139;-73
2022/11/08 02:52:26;;;;;;;4.93;2.50;;;10.50;99.90;;;;;;7390298;19;20519;-74
2022/11/08 02:54:52;;;;;;;4.90;2.83;;;10.40;99.90;;;;;;7389838;19;20541;-74
2022/11/08 02:57:17;;;;;;;4.07;2.73;;;10.30;99.90;;;;;;7387663;19;20184;-74
2022/11/08 02:59:43;;;;;;;5.53;2.73;;;10.30;99.90;;;;;;7391210;19;20135;-73
2022/11/08 03:02:09;;;;;;;5.00;2.57;;;10.00;99.90;;;;;;7391615;19;20687;-74
2022/11/08 03:04:34;;;;;;;3.57;2.43;;;9.80;99.90;;;;;;7389889;19;20155;-73
2022/11/08 03:07:00;;;;;;;3.40;2.10;;;9.80;99.90;;;;;;7390843;19;20135;-73
2022/11/08 03:09:26;;;;;;;4.50;2.37;;;9.70;99.90;;;;;;7391195;19;20139;-74
2022/11/08 03:11:52;;;;;;;3.63;2.30;;;10.00;99.90;;;;;;7390308;19;20139;-73
2022/11/08 03:14:18;;;;;;;5.57;2.10;;;10.10;99.90;;;;;;7390125;19;21350;-76
2022/11/08 03:16:44;;;;;;;3.43;2.17;;;10.30;99.90;;;;;;7385867;19;20524;-74
2022/11/08 03:19:10;;;;;;;4.73;2.33;;;10.30;99.90;;;;;;7390862;19;20150;-74
2022/11/08 03:21:36;;;;;;;3.30;2.00;;;10.10;99.90;;;;;;7390170;19;20604;-75
2022/11/08 03:24:04;;;;;;;2.53;2.07;;;10.00;99.90;;;;;;7390554;19;20502;-74
2022/11/08 03:26:31;;;;;;;3.57;2.63;;;10.20;99.90;;;;;;7390577;19;20131;-74
2022/11/08 03:28:56;;;;;;;3.77;2.17;;;10.40;99.90;;;;;;7387482;19;20598;-77
2022/11/08 03:31:22;;;;;;;3.37;2.13;;;10.40;99.90;;;;;;7388793;19;20155;-76
2022/11/08 03:33:48;;;;;;;3.37;2.30;;;10.00;99.90;;;;;;7391381;19;20141;-76
2022/11/08 03:36:13;;;;;;;5.60;2.43;;;9.70;99.90;;;;;;7389769;19;20150;-75
2022/11/08 03:38:39;;;;;;;6.60;2.33;;;9.70;99.90;;;;;;7388402;19;20595;-76
2022/11/08 03:41:05;;;;;;;6.60;3.33;;;9.80;99.90;;;;;;7387404;19;20159;-77
2022/11/08 03:43:31;;;;;;;4.13;2.40;;;9.80;99.90;;;;;;7389726;19;20588;-76
2022/11/08 03:45:57;;;;;;;3.67;2.37;;;9.80;99.90;;;;;;7390545;19;20139;-76
2022/11/08 03:48:22;;;;;;;4.33;2.80;;;9.50;99.90;;;;;;7392223;19;20167;-77
2022/11/08 03:50:50;;;;;;;5.70;2.37;;;9.70;99.90;;;;;;7389743;19;20834;-77
2022/11/08 03:53:16;;;;;;;4.30;2.40;;;9.70;99.90;;;;;;7389260;19;20186;-77
2022/11/08 03:55:42;;;;;;;5.47;2.57;;;9.60;99.90;;;;;;7386789;19;20147;-77
2022/11/08 03:58:07;;;;;;;3.60;1.70;;;9.50;99.90;;;;;;7387871;19;20616;-77
2022/11/08 04:00:33;;;;;;;1.97;1.60;;;9.30;99.90;;;;;;7391790;19;20146;-77
2022/11/08 04:03:01;;;;;;;2.70;2.20;;;9.30;99.90;;;;;;7388520;19;20653;-77
2022/11/08 04:05:28;;;;;;;4.67;2.57;;;9.70;99.90;;;;;;7386157;19;20631;-77
2022/11/08 04:07:53;;;;;;;3.60;2.27;;;9.90;99.90;;;;;;7389080;19;20618;-78
2022/11/08 04:10:19;;;;;;;3.93;2.30;;;9.90;99.90;;;;;;7389869;19;20199;-76
2022/11/08 04:15:30;;;;;;;3.67;3.03;;;10.40;99.90;;;;;;7390034;19;20138;-76
2022/11/08 04:23:28;;;;;;;3.03;2.20;;;10.40;99.90;;;;;;7386874;19;20591;-76
2022/11/08 04:25:59;;;;;;;4.93;2.00;;;10.20;99.90;;;;;;7389037;19;20139;-76
2022/11/08 04:28:27;;;;;;;3.20;2.20;;;10.10;99.90;;;;;;7386552;19;20134;-77
2022/11/08 04:30:58;;;;;;;3.20;1.80;;;9.90;99.90;;;;;;7386761;19;20147;-76
2022/11/08 04:33:25;;;;;;;4.37;1.90;;;9.80;99.90;;;;;;7390839;19;20150;-77
2022/11/08 04:35:51;;;;;;;3.83;2.17;;;9.70;99.90;;;;;;7387474;19;20130;-77
2022/11/08 04:38:18;;;;;;;3.23;2.00;;;9.20;99.90;;;;;;7386651;19;20126;-76
2022/11/08 04:40:44;;;;;;;3.13;1.97;;;9.20;99.90;;;;;;7388634;19;20152;-76
2022/11/08 04:43:10;;;;;;;2.87;1.80;;;9.50;99.90;;;;;;7387921;19;20658;-77
2022/11/08 04:45:36;;;;;;;2.97;1.77;;;9.40;99.90;;;;;;7382406;19;20142;-76
2022/11/08 04:48:01;;;;;;;2.33;1.80;;;9.50;99.90;;;;;;7385764;19;20143;-75
2022/11/08 04:50:27;;;;;;;3.50;2.00;;;9.70;99.90;;;;;;7386929;19;20166;-75
2022/11/08 04:52:54;;;;;;;4.87;2.30;;;9.90;99.90;;;;;;7387835;19;20150;-76
2022/11/08 04:55:22;;;;;;;2.00;1.80;;;10.00;99.90;;;;;;7389619;19;20160;-76
2022/11/08 04:57:48;;;;;;;3.30;2.10;;;10.20;99.90;;;;;;7383004;19;20542;-76
2022/11/08 05:00:15;;;;;;;2.60;2.03;;;10.10;99.90;;;;;;7388192;19;20142;-75
2022/11/08 05:02:40;;;;;;;2.63;2.37;;;10.20;99.90;;;;;;7385377;19;20150;-76
2022/11/08 05:05:06;;;;;;;4.90;2.30;;;10.30;99.90;;;;;;7386814;19;20158;-76
2022/11/08 05:07:32;;;;;;;5.97;3.30;;;10.40;99.90;;;;;;7386443;19;20146;-77
2022/11/08 05:09:58;;;;;;;4.70;2.93;;;10.40;99.90;;;;;;7388472;19;21124;-76
2022/11/08 05:12:24;;;;;;;4.23;2.93;;;10.40;99.90;;;;;;7386682;19;20530;-76
2022/11/08 05:14:49;;;;;;;3.80;2.90;;;10.40;99.90;;;;;;7385193;19;20175;-77
2022/11/08 05:17:15;;;;;;;6.23;3.40;;;10.40;99.90;;;;;;7385569;19;20470;-77
2022/11/08 05:25:10;;;;;;;5.23;2.50;;;10.30;99.90;;;;;;7388265;19;20167;-76
2022/11/08 05:27:36;;;;;;;5.10;3.10;;;10.30;99.90;;;;;;7386391;19;20143;-77
2022/11/08 05:30:02;;;;;;;4.00;2.57;;;10.30;99.90;;;;;;7387282;19;20150;-76
2022/11/08 05:32:27;;;;;;;3.17;2.37;;;10.30;99.90;;;;;;7388514;19;20165;-76
2022/11/08 05:34:54;;;;;;;2.93;2.27;;;10.20;99.90;;;;;;7383338;19;20594;-77
2022/11/08 05:37:19;;;;;;;6.60;2.40;;;10.20;99.90;;;;;;7383281;19;20518;-77
2022/11/08 05:39:45;;;;;;;7.73;4.20;;;10.20;99.90;;;;;;7385460;19;20135;-76
2022/11/08 05:42:11;;;;;;;4.57;3.43;;;10.30;99.90;;;;;;7386378;19;20146;-77
2022/11/08 05:44:37;;;;;;;8.17;3.77;;;10.20;99.90;;;;;;7385727;19;20167;-77
2022/11/08 05:47:03;;;;;;;8.17;3.80;;;10.20;99.90;;;;;;7388372;19;20163;-77
2022/11/08 05:49:29;;;;;;;4.27;2.93;;;10.10;99.90;;;;;;7387242;19;20700;-76
2022/11/08 05:51:55;;;;;;;3.87;2.40;;;10.00;99.90;;;;;;7389937;19;20134;-77
2022/11/08 05:54:21;;;;;;;6.60;2.70;;;9.90;99.90;;;;;;7388732;19;20565;-75
2022/11/08 05:56:46;;;;;;;3.97;2.70;;;10.00;99.90;;;;;;7389631;19;20647;-75
2022/11/08 05:59:12;;;;;;;3.10;2.07;;;9.70;99.90;;;;;;7395303;19;20138;-75
2022/11/08 06:01:38;;;;;;;3.67;2.00;;;9.50;99.90;;;;;;7395831;19;20138;-77
2022/11/08 06:04:03;;;;;;;4.93;2.60;;;9.60;99.90;;;;;;7398127;19;20141;-76
2022/11/08 06:06:29;;;;;;;3.40;2.50;;;9.80;99.90;;;;;;7401699;19;20167;-76
2022/11/08 06:08:55;;;;;;;4.23;2.80;;;9.70;99.90;;;;;;7399898;19;20154;-76
2022/11/08 06:11:23;;;;;;;2.63;2.30;;;9.90;99.90;;;;;;7400524;19;20139;-76
2022/11/08 06:13:50;;;;;;;4.17;2.33;;;10.00;99.90;;;;;;7396712;19;20158;-77
2022/11/08 06:16:17;;;;;;;5.17;2.23;;;9.70;99.90;;;;;;7393219;19;20171;-77
2022/11/08 06:18:43;;;;;;;3.33;2.23;;;9.60;99.90;;;;;;7389705;19;20150;-77
2022/11/08 06:21:14;;;;;;;3.60;2.93;;;9.70;99.90;;;;;;7395211;19;20149;-76
2022/11/08 06:23:40;;;;;;;4.13;2.80;;;9.90;99.90;;;;;;7393058;19;20172;-76
2022/11/08 06:26:07;;;;;;;5.63;3.27;;;10.00;99.90;;;;;;7391254;19;20137;-76
2022/11/08 06:28:34;;;;;;;5.07;3.20;;;10.00;99.90;;;;;;7395568;19;20164;-77
2022/11/08 06:31:01;;;;;;;5.23;2.80;;;10.00;99.90;;;;;;7389159;19;20142;-77
2022/11/08 06:33:27;;;;;;;5.40;3.33;;;10.10;99.90;;;;;;7392580;19;20135;-77
2022/11/08 06:35:53;;;;;;;6.07;3.67;;;10.00;99.90;;;;;;7390205;19;20236;-76
2022/11/08 06:38:19;;;;;;;5.63;3.43;;;10.10;99.90;;;;;;7386445;19;20567;-76
2022/11/08 06:40:45;;;;;;;7.53;3.60;;;10.20;99.90;;;;;;7390470;19;20198;-76
2022/11/08 06:43:11;;;;;;;5.37;3.17;;;9.30;99.90;;;;;;7391274;19;20491;-79
2022/11/08 06:45:37;;;;;;;3.10;2.57;;;9.50;99.90;;;;;;7391588;19;20130;-79
2022/11/08 06:48:05;;;;;;;3.53;2.63;;;9.50;99.90;;;;;;7388274;19;20150;-77
2022/11/08 06:50:33;;;;;;;3.97;2.60;;;9.80;99.90;;;;;;7392518;19;20134;-78
2022/11/08 06:53:06;;;;;;;8.13;3.37;;;9.90;99.90;;;;;;7393578;19;20151;-78
2022/11/08 06:55:34;;;;;;;5.20;3.20;;;10.00;99.90;;;;;;7394697;19;20178;-79
2022/11/08 06:58:00;;;;;;;7.60;3.33;;;10.00;99.90;;;;;;7392732;19;20166;-79
2022/11/08 07:00:26;;;;;;;3.57;2.80;;;10.10;99.90;;;;;;7394371;19;20682;-78
2022/11/08 07:02:56;;;;;;;6.30;2.87;;;9.80;99.90;;;;;;7397475;19;20173;-78
2022/11/08 07:05:23;;;;;;;5.50;3.00;;;9.40;99.90;;;;;;7392378;19;20154;-79
2022/11/08 07:07:51;;;;;;;4.33;2.37;;;9.70;99.90;;;;;;7391772;19;20637;-79
2022/11/08 07:10:22;;;;;;;5.03;3.23;;;9.70;99.90;;;;;;7390772;19;20150;-76
2022/11/08 07:12:49;;;;;;;6.37;3.00;;;9.60;99.90;;;;;;7391975;19;20220;-76
2022/11/08 07:15:16;;;;;;;4.87;3.23;;;9.70;99.90;;;;;;7385485;19;20476;-76
2022/11/08 07:17:41;;;;;;;4.90;3.17;;;9.80;99.90;;;;;;7389987;19;20134;-79
2022/11/08 07:20:08;;;;;;;7.83;3.80;;;9.90;99.90;;;;;;7389614;19;20604;-76
2022/11/08 07:22:34;;;;;;;5.53;3.27;;;10.10;99.90;;;;;;7386084;19;20146;-76
2022/11/08 07:24:59;;;;;;;6.93;4.03;;;10.20;99.90;;;;;;7393718;19;20139;-75
2022/11/08 07:27:26;;;;;;;5.30;3.53;;;10.40;99.90;;;;;;7386051;19;20625;-76
2022/11/08 07:29:52;;;;;;;9.40;4.10;;;10.40;99.90;;;;;;7391658;19;20145;-76
2022/11/08 07:32:18;;;;;;;6.17;3.57;;;10.50;99.90;;;;;;7387617;19;20147;-76
2022/11/08 07:34:43;;;;;;;5.77;3.90;;;10.50;99.90;;;;;;7385129;19;20584;-76
2022/11/08 07:37:09;;;;;;;5.87;4.00;;;10.60;99.90;;;;;;7386748;19;20175;-76
2022/11/08 07:39:35;;;;;;;5.60;4.33;;;10.60;99.90;;;;;;7389741;19;20135;-76
2022/11/08 07:42:00;;;;;;;5.37;3.90;;;10.60;99.90;;;;;;7391055;19;20146;-76
2022/11/08 07:44:26;;;;;;;7.17;3.93;;;10.70;99.90;;;;;;7386051;19;20152;-77
2022/11/08 07:46:52;;;;;;;6.07;3.60;;;10.60;99.90;;;;;;7388423;19;20534;-78
2022/11/08 07:49:17;;;;;;;5.07;3.30;;;10.60;99.90;;;;;;7389824;19;20137;-76
2022/11/08 07:51:43;;;;;;;5.63;3.93;;;10.60;99.90;;;;;;7388508;19;20226;-77
2022/11/08 07:54:10;;;;;;;6.37;3.77;;;10.80;99.90;;;;;;7388121;19;20151;-76
2022/11/08 07:56:35;;;;;;;6.80;3.27;;;10.90;99.90;;;;;;7388777;19;20151;-76
2022/11/08 07:59:01;;;;;;;6.23;3.20;;;10.80;99.90;;;;;;7387545;19;20591;-77
2022/11/08 08:01:27;;;;;;;5.93;3.50;;;10.80;99.90;;;;;;7386872;19;20158;-76
2022/11/08 08:03:52;;;;;;;5.70;3.27;;;10.80;99.90;;;;;;7390738;19;20185;-76
2022/11/08 08:06:18;;;;;;;5.40;3.43;;;10.80;99.90;;;;;;7394149;19;20158;-77
2022/11/08 08:08:44;;;;;;;6.83;3.80;;;10.80;99.90;;;;;;7389473;19;20151;-76
2022/11/08 08:11:09;;;;;;;4.97;3.70;;;10.60;99.90;;;;;;7391608;19;20560;-77
2022/11/08 08:13:35;;;;;;;6.73;4.07;;;10.70;99.90;;;;;;7390952;19;20145;-77
2022/11/08 08:16:02;;;;;;;5.03;3.63;;;10.70;99.90;;;;;;7391333;19;20142;-76
2022/11/08 08:18:28;;;;;;;9.13;4.30;;;10.70;99.90;;;;;;7385634;19;20167;-77
2022/11/08 08:20:54;;;;;;;9.83;5.90;;;10.70;99.90;;;;;;7391082;19;20158;-76
2022/11/08 08:23:20;;;;;;;8.97;4.73;;;10.90;99.90;;;;;;7388846;19;20169;-77
2022/11/08 08:25:46;;;;;;;8.33;4.13;;;11.00;99.90;;;;;;7391749;19;20143;-76
2022/11/08 08:28:11;;;;;;;8.00;4.47;;;10.90;99.90;;;;;;7389975;19;20152;-77
2022/11/08 08:30:39;;;;;;;6.37;4.03;;;10.90;99.90;;;;;;7389520;19;20170;-76
2022/11/08 08:33:11;;;;;;;8.03;4.47;;;10.90;99.90;;;;;;7389653;19;20154;-77
2022/11/08 08:35:39;;;;;;;6.27;4.30;;;10.90;99.90;;;;;;7389635;19;20163;-78
2022/11/08 08:38:06;;;;;;;7.47;3.80;;;11.10;99.90;;;;;;7388485;19;20644;-77
2022/11/08 08:40:32;;;;;;;7.33;4.10;;;11.10;99.90;;;;;;7386734;19;20655;-76
2022/11/08 08:42:59;;;;;;;6.57;3.70;;;10.90;99.90;;;;;;7389467;19;20173;-77
2022/11/08 08:45:26;;;;;;;7.50;4.57;;;11.10;99.90;;;;;;7388819;19;20550;-77
2022/11/08 08:47:54;;;;;;;5.60;3.37;;;11.20;99.90;;;;;;7388404;19;20612;-76
2022/11/08 08:50:20;;;;;;;6.27;3.50;;;10.90;99.90;;;;;;7390328;19;20142;-76
2022/11/08 08:52:46;;;;;;;6.77;3.53;;;10.90;99.90;;;;;;7388590;19;20155;-77
2022/11/08 08:55:12;;;;;;;11.03;4.83;;;11.00;99.90;;;;;;7390015;19;20139;-76
2022/11/08 08:57:42;;;;;;;8.27;3.43;;;11.10;99.90;;;;;;7385545;19;20575;-76
2022/11/08 09:00:08;;;;;;;9.63;4.47;;;11.40;99.90;;;;;;7387549;19;20138;-77
2022/11/08 09:02:34;;;;;;;5.07;3.43;;;11.60;99.90;;;;;;7388650;19;20633;-77
2022/11/08 09:04:59;;;;;;;5.10;3.47;;;11.80;99.90;;;;;;7388885;19;20156;-76
2022/11/08 09:07:25;;;;;;;4.70;3.07;;;12.10;99.90;;;;;;7383592;19;20219;-76
2022/11/08 09:09:51;;;;;;;4.73;3.40;;;12.20;99.90;;;;;;7385885;19;20180;-76
2022/11/08 09:12:16;;;;;;;4.47;3.43;;;12.10;99.90;;;;;;7387859;19;20553;-77
2022/11/08 09:14:43;;;;;;;5.27;3.70;;;12.10;99.90;;;;;;7385807;19;20131;-76
2022/11/08 09:17:08;;;;;;;5.30;3.47;;;12.10;99.90;;;;;;7386275;19;20141;-76
2022/11/08 09:19:34;;;;;;;6.20;3.50;;;12.20;99.90;;;;;;7387736;19;20118;-76
2022/11/08 09:22:00;;;;;;;5.10;3.07;;;12.20;99.90;;;;;;7387079;19;20213;-76
2022/11/08 09:24:26;;;;;;;4.60;3.20;;;12.20;99.90;;;;;;7385736;19;20439;-76
2022/11/08 09:26:51;;;;;;;5.10;3.40;;;12.30;99.90;;;;;;7385522;19;20141;-76
2022/11/08 09:29:20;;;;;;;5.73;4.50;;;12.30;99.90;;;;;;7387935;19;20131;-77
2022/11/08 09:31:46;;;;;;;8.77;3.70;;;12.40;99.90;;;;;;7388500;19;20127;-76
2022/11/08 09:34:12;;;;;;;9.93;3.40;;;12.30;99.90;;;;;;7385680;19;20583;-76
2022/11/08 09:36:38;;;;;;;5.73;3.30;;;12.40;99.90;;;;;;7386473;19;20130;-77
2022/11/08 09:39:04;;;;;;;7.60;3.87;;;12.40;99.90;;;;;;7384022;19;20146;-76
2022/11/08 09:41:48;;;;;;;6.07;3.77;;;12.50;99.90;;;;;;7394744;19;20127;-76
2022/11/08 09:44:35;;;;;;;4.13;3.00;;;12.50;99.90;;;;;;7397257;19;21117;-75
2022/11/08 09:47:09;;;;;;;4.83;3.93;;;12.60;99.90;;;;;;7394156;19;20142;-76
2022/11/08 09:49:41;;;;;;;5.90;3.73;;;12.60;99.90;;;;;;7392248;19;20166;-77
2022/11/08 09:52:15;;;;;;;7.10;3.70;;;12.60;99.90;;;;;;7392880;19;20179;-76
2022/11/08 09:54:44;;;;;;;7.57;4.23;;;12.70;99.90;;;;;;7395320;19;20142;-76
2022/11/08 09:57:21;;;;;;;4.80;3.33;;;12.70;99.90;;;;;;7392430;19;20178;-76
2022/11/08 09:59:57;;;;;;;4.57;3.13;;;12.70;99.90;;;;;;7399943;19;20182;-77
2022/11/08 10:02:24;;;;;;;5.17;3.50;;;12.80;99.90;;;;;;7391726;19;20153;-77
2022/11/08 10:05:01;;;;;;;5.77;3.47;;;12.70;99.90;;;;;;7392898;19;20648;-77
2022/11/08 10:07:53;;;;;;;9.40;3.70;;;12.70;99.90;;;;;;7393585;19;20138;-78
2022/11/08 10:10:45;;;;;;;4.60;3.70;;;12.70;99.90;;;;;;7395021;19;20179;-76
2022/11/08 10:13:11;;;;;;;5.25;3.47;;;12.90;99.90;;;;;;7392272;19;20147;-76
2022/11/08 10:16:05;;;;;;;4.60;3.10;;;13.00;99.90;;;;;;7398317;19;20154;-76
2022/11/08 10:18:38;;;;;;;8.13;3.67;;;13.10;99.90;;;;;;7392415;19;20653;-76
2022/11/08 10:21:07;;;;;;;8.52;4.07;;;13.10;99.90;;;;;;7394621;19;20165;-76
2022/11/08 10:23:44;;;;;;;6.30;4.07;;;13.10;99.90;;;;;;7397146;19;20131;-76
2022/11/08 10:26:19;;;;;;;5.30;3.40;;;13.20;99.90;;;;;;7399396;19;20159;-77
2022/11/08 10:28:49;;;;;;;8.53;3.40;;;13.10;99.90;;;;;;7397694;19;20151;-76
2022/11/08 10:31:17;;;;;;;4.00;2.97;;;13.20;99.90;;;;;;7399299;19;20135;-76
2022/11/08 10:33:55;;;;;;;5.83;2.90;;;13.40;99.90;;;;;;7396343;19;20157;-77
2022/11/08 10:36:36;;;;;;;7.27;3.20;;;13.40;99.90;;;;;;7392443;19;20644;-76
2022/11/08 10:39:07;;;;;;;4.72;3.08;;;13.30;99.90;;;;;;7391050;19;20247;-76
2022/11/08 10:41:43;;;;;;;5.93;3.13;;;13.30;99.90;;;;;;7392176;19;20139;-76
2022/11/08 10:44:16;;;;;;;4.90;3.22;;;13.50;99.90;;;;;;7391111;19;20654;-76
2022/11/08 10:46:47;;;;;;;4.95;3.58;;;13.50;99.90;;;;;;7391212;19;20184;-75
2022/11/08 10:49:25;;;;;;;9.60;5.47;;;13.40;99.90;;;;;;7393727;19;20138;-76
2022/11/08 10:51:54;;;;;;;6.55;3.92;;;13.40;99.90;;;;;;7394605;19;20138;-75
2022/11/08 10:54:46;;;;;;;5.87;4.20;;;13.40;99.90;;;;;;7389541;19;20143;-79
2022/11/08 10:57:24;;;;;;;5.68;3.45;;;13.50;99.90;;;;;;7389378;19;20178;-77
2022/11/08 10:59:50;;;;;;;4.53;3.15;;;13.50;99.90;;;;;;7395611;19;20142;-76
2022/11/08 11:02:32;;;;;;;5.30;3.80;;;13.50;99.90;;;;;;7393922;19;20154;-76
2022/11/08 11:05:33;;;;;;;8.10;3.70;;;13.50;99.90;;;;;;7391523;19;20179;-75
2022/11/08 11:08:14;;;;;;;6.78;3.03;;;13.70;99.90;;;;;;7387068;19;20149;-75
2022/11/08 11:10:44;;;;;;;4.50;3.00;;;13.90;99.90;;;;;;7390346;19;20154;-76
2022/11/08 11:13:21;;;;;;;5.63;2.63;;;14.20;99.90;;;;;;7392963;19;20143;-76
2022/11/08 11:15:50;;;;;;;4.73;3.03;;;14.30;99.90;;;;;;7397091;19;20160;-76
2022/11/08 11:18:34;;;;;;;4.40;3.33;;;14.30;99.90;;;;;;7400418;19;20142;-76
2022/11/08 11:21:17;;;;;;;7.15;3.30;;;14.20;99.90;;;;;;7394457;19;20139;-76
2022/11/08 11:23:52;;;;;;;6.38;2.92;;;14.20;99.90;;;;;;7392169;19;20500;-76
2022/11/08 11:26:29;;;;;;;6.65;4.32;;;14.10;99.90;;;;;;7392514;19;20166;-77
2022/11/08 11:29:04;;;;;;;4.57;2.85;;;14.10;99.90;;;;;;7390386;19;20205;-76
2022/11/08 11:31:33;;;;;;;6.57;3.67;;;14.20;99.90;;;;;;7392148;19;20162;-75
2022/11/08 11:34:18;;;;;;;3.95;2.80;;;14.10;99.90;;;;;;7389524;19;20175;-76
2022/11/08 11:36:49;;;;;;;6.88;2.97;;;14.20;99.90;;;;;;7390188;19;20135;-76
2022/11/08 11:39:21;;;;;;;7.25;3.00;;;14.30;99.90;;;;;;7390619;19;20147;-75
2022/11/08 11:42:08;;;;;;;9.30;6.03;;;14.40;99.90;;;;;;7391677;19;20202;-76
2022/11/08 11:45:01;;;;;;;9.35;5.15;;;14.60;99.90;;;;;;7389160;19;20210;-77
2022/11/08 11:47:38;;;;;;;4.18;2.92;;;14.80;99.90;;;;;;7392996;19;20181;-77
2022/11/08 11:50:18;;;;;;;3.10;2.15;;;15.10;99.90;;;;;;7392215;19;20143;-76
2022/11/08 11:52:44;;;;;;;4.05;1.70;;;15.30;99.90;;;;;;7398579;19;20634;-76
2022/11/08 11:55:14;;;;;;;2.80;1.45;;;15.40;99.90;;;;;;7391170;19;20201;-76
2022/11/08 11:57:55;;;;;;;9.75;5.82;;;15.60;99.90;;;;;;7387447;19;20151;-76
2022/11/08 12:00:21;;;;;;;6.78;2.63;;;15.60;99.90;;;;;;7395696;19;20613;-76
2022/11/08 12:03:01;;;;;;;2.25;1.50;;;15.60;99.90;;;;;;7391502;19;20186;-76
2022/11/08 12:05:45;;;;;;;2.13;1.30;;;15.60;99.90;;;;;;7393325;19;20178;-76
2022/11/08 12:08:44;;;;;;;2.95;1.83;;;15.70;99.90;;;;;;7394819;19;20146;-76
2022/11/08 12:11:35;;;;;;;3.35;1.55;;;16.00;99.90;;;;;;7390470;19;20180;-76
2022/11/08 12:14:16;;;;;;;4.25;2.33;;;16.10;99.90;;;;;;7388580;19;20158;-76
2022/11/08 12:17:21;;;;;;;2.60;1.55;;;16.40;99.90;;;;;;7389681;19;20161;-76
2022/11/08 12:20:04;;;;;;;2.60;1.10;;;16.50;99.90;;;;;;7388963;19;20162;-75
2022/11/08 12:23:09;;;;;;;2.13;1.23;;;16.80;99.90;;;;;;7389837;19;20143;-76
2022/11/08 12:25:58;;;;;;;3.58;1.35;;;16.90;99.90;;;;;;7387910;19;20176;-76
2022/11/08 12:28:48;;;;;;;5.47;1.27;;;17.10;99.90;;;;;;7385135;19;20185;-76
2022/11/08 12:31:16;;;;;;;1.98;1.08;;;17.30;99.90;;;;;;7388931;19;20142;-76
2022/11/08 12:33:57;;;;;;;5.22;1.60;;;17.30;99.90;;;;;;7385227;19;20151;-77
2022/11/08 12:36:52;;;;;;;4.18;1.20;;;17.60;99.90;;;;;;7387354;19;20202;-76
2022/11/08 12:39:21;;;;;;;1.38;0.85;;;17.70;99.90;;;;;;7389437;19;20167;-76
2022/11/08 12:41:52;;;;;;;3.13;1.88;;;17.90;99.90;;;;;;7387519;19;20526;-76
2022/11/08 12:44:43;;;;;;;6.25;3.83;;;18.00;99.90;;;;;;7389501;19;20139;-76
2022/11/08 12:47:44;;;;;;;5.47;2.17;;;18.00;99.90;;;;;;7387063;19;20157;-76
2022/11/08 12:50:24;;;;;;;12.65;5.50;;;18.10;99.90;;;;;;7388542;19;20134;-76
2022/11/08 12:53:02;;;;;;;1.10;0.75;;;18.20;99.90;;;;;;7387349;19;20742;-76
2022/11/08 12:55:36;;;;;;;3.83;0.90;;;18.30;99.90;;;;;;7386151;19;20151;-77
2022/11/08 12:58:21;;;;;;;1.45;1.00;;;18.30;99.90;;;;;;7386678;19;20646;-76
2022/11/08 13:00:49;;;;;;;3.78;1.80;;;18.30;99.90;;;;;;7387404;19;20201;-77
2022/11/08 13:03:35;;;;;;;2.03;1.02;;;18.30;99.90;;;;;;7389164;19;20591;-76
2022/11/08 13:06:36;;;;;;;4.63;1.30;;;18.30;99.90;;;;;;7389341;19;20134;-76
2022/11/08 13:09:20;;;;;;;2.30;1.48;;;18.20;99.90;;;;;;7384538;19;20129;-76
2022/11/08 13:12:20;;;;;;;1.70;1.00;;;18.10;99.90;;;;;;7387509;19;20150;-77
2022/11/08 13:14:47;;;;;;;2.08;1.17;;;17.90;99.90;;;;;;7391382;19;20130;-77
2022/11/08 13:17:23;;;;;;;1.08;0.80;;;17.80;99.90;;;;;;7395308;19;20264;-77
2022/11/08 13:20:03;;;;;;;3.13;1.05;;;17.80;99.90;;;;;;7393999;19;20130;-77
2022/11/08 13:22:29;;;;;;;2.72;1.13;;;17.80;99.90;;;;;;7397036;19;20135;-77
2022/11/08 13:24:59;;;;;;;1.88;0.98;;;17.70;99.90;;;;;;7395859;19;20167;-76